Time;durP1;ratioP1;P1;durP2;ratioP2;P2;SDS_P1;SDS_P2;PMS_P1;PMS_P2;Temp;Humidity;BMP_temperature;BMP_pressure;BME280_temperature;BME280_humidity;BME280_pressure;Samples;Min_cycle;Max_cycle;Signal;HPM_P1;HPM_P2
2021/01/19 00:00:22;;;;;;;19.35;4.70;;;6.10;99.90;;;;;;5094257;28;20024;-68
2021/01/19 00:02:48;;;;;;;6.97;4.22;;;6.00;99.90;;;;;;5095382;28;20032;-68
2021/01/19 00:05:13;;;;;;;15.23;5.32;;;6.00;99.90;;;;;;5095248;28;20082;-66
2021/01/19 00:07:39;;;;;;;8.95;3.78;;;6.00;99.90;;;;;;5094378;28;20479;-67
2021/01/19 00:10:05;;;;;;;9.95;3.58;;;6.00;99.90;;;;;;5094225;28;20471;-66
2021/01/19 00:12:31;;;;;;;10.18;3.05;;;6.00;99.90;;;;;;5094350;28;20031;-67
2021/01/19 00:14:56;;;;;;;6.13;3.17;;;6.00;99.90;;;;;;5094138;28;20092;-67
2021/01/19 00:17:22;;;;;;;15.35;3.25;;;6.00;99.90;;;;;;5093521;28;20108;-66
2021/01/19 00:19:47;;;;;;;8.02;2.97;;;6.00;99.90;;;;;;5094641;28;20016;-67
2021/01/19 00:22:13;;;;;;;11.02;3.63;;;6.00;99.90;;;;;;5093794;28;20020;-67
2021/01/19 00:24:38;;;;;;;9.80;2.75;;;6.00;99.90;;;;;;5093960;28;20021;-66
2021/01/19 00:27:04;;;;;;;13.13;3.20;;;6.00;99.90;;;;;;5093922;28;20529;-66
2021/01/19 00:29:30;;;;;;;12.18;2.97;;;6.00;99.90;;;;;;5093984;28;20410;-66
2021/01/19 00:31:55;;;;;;;11.50;2.65;;;6.00;99.90;;;;;;5093520;28;20022;-66
2021/01/19 00:34:21;;;;;;;10.73;3.33;;;6.00;99.90;;;;;;5094101;28;20055;-66
2021/01/19 00:36:47;;;;;;;14.82;4.68;;;6.00;99.90;;;;;;5094045;28;20456;-66
2021/01/19 00:39:13;;;;;;;9.60;2.60;;;6.00;99.90;;;;;;5093561;28;20096;-66
2021/01/19 00:41:38;;;;;;;11.93;2.90;;;6.00;99.90;;;;;;5093804;28;20494;-67
2021/01/19 00:44:05;;;;;;;15.15;4.18;;;6.00;99.90;;;;;;5070211;28;20032;-66
2021/01/19 00:46:30;;;;;;;9.13;3.45;;;6.00;99.90;;;;;;5082645;28;20036;-67
2021/01/19 00:48:56;;;;;;;11.30;3.47;;;6.00;99.90;;;;;;5093768;28;20043;-67
2021/01/19 00:51:21;;;;;;;5.70;2.90;;;6.00;99.90;;;;;;5093142;28;20043;-67
2021/01/19 00:53:47;;;;;;;10.90;3.40;;;6.00;99.90;;;;;;5093961;28;20012;-67
2021/01/19 00:56:12;;;;;;;11.90;2.65;;;6.00;99.90;;;;;;5093212;28;20070;-67
2021/01/19 00:58:38;;;;;;;6.55;2.30;;;6.00;99.90;;;;;;5093264;28;20047;-67
2021/01/19 01:01:04;;;;;;;8.50;2.15;;;6.00;99.90;;;;;;5093555;28;20024;-67
2021/01/19 01:03:33;;;;;;;9.63;2.22;;;6.00;99.90;;;;;;5093730;28;20406;-67
2021/01/19 01:05:59;;;;;;;7.65;2.65;;;6.00;99.90;;;;;;5093715;28;20031;-67
2021/01/19 01:08:25;;;;;;;12.90;3.25;;;6.10;99.90;;;;;;5088134;28;20021;-68
2021/01/19 01:10:51;;;;;;;15.43;2.70;;;6.10;99.90;;;;;;5090164;28;20024;-67
2021/01/19 01:13:17;;;;;;;12.65;3.10;;;6.10;99.90;;;;;;5092663;28;20039;-67
2021/01/19 01:15:43;;;;;;;10.02;2.60;;;6.10;99.90;;;;;;5092969;28;20105;-67
2021/01/19 01:18:13;;;;;;;14.27;3.17;;;6.10;99.90;;;;;;5093298;28;20038;-67
2021/01/19 01:20:41;;;;;;;8.35;2.88;;;6.10;99.90;;;;;;5065074;28;20024;-67
2021/01/19 01:23:06;;;;;;;11.85;2.65;;;6.10;99.90;;;;;;5072002;28;20094;-66
2021/01/19 01:25:32;;;;;;;12.80;2.72;;;6.10;99.90;;;;;;5072064;28;20013;-68
2021/01/19 01:27:58;;;;;;;11.20;2.65;;;6.20;99.90;;;;;;5072362;28;20469;-67
2021/01/19 01:30:24;;;;;;;9.02;2.72;;;6.20;99.90;;;;;;5072199;28;20025;-68
2021/01/19 01:32:51;;;;;;;10.20;2.95;;;6.20;99.90;;;;;;5072978;28;20078;-67
2021/01/19 01:35:18;;;;;;;7.60;2.40;;;6.20;99.90;;;;;;5071771;28;20017;-67
2021/01/19 01:37:46;;;;;;;8.98;2.72;;;6.20;99.90;;;;;;5072334;28;20056;-67
2021/01/19 01:40:12;;;;;;;7.32;2.60;;;6.20;99.90;;;;;;5072533;28;20029;-67
2021/01/19 01:42:38;;;;;;;25.25;5.47;;;6.20;99.90;;;;;;5072328;28;20032;-67
2021/01/19 01:45:04;;;;;;;15.75;2.95;;;6.20;99.90;;;;;;5072450;28;20361;-67
2021/01/19 01:47:30;;;;;;;20.20;3.53;;;6.20;99.90;;;;;;5071890;28;20104;-67
2021/01/19 01:49:56;;;;;;;9.75;3.05;;;6.20;99.90;;;;;;5072446;28;20474;-67
2021/01/19 01:52:23;;;;;;;9.27;2.85;;;6.30;99.90;;;;;;5071916;28;20082;-68
2021/01/19 01:54:50;;;;;;;15.38;3.03;;;6.30;99.90;;;;;;5071979;28;20226;-67
2021/01/19 01:57:19;;;;;;;13.05;4.30;;;6.20;99.90;;;;;;5071657;28;20542;-67
2021/01/19 01:59:54;;;;;;;7.15;3.63;;;6.20;99.90;;;;;;5072288;28;20024;-67
2021/01/19 02:02:20;;;;;;;16.33;4.18;;;6.20;99.90;;;;;;5071549;28;20025;-67
2021/01/19 02:04:45;;;;;;;11.25;2.92;;;6.20;99.90;;;;;;5072279;28;20519;-67
2021/01/19 02:07:39;;;;;;;12.68;2.83;;;6.10;99.90;;;;;;5072117;28;20028;-67
2021/01/19 02:10:27;;;;;;;9.15;2.90;;;6.10;99.90;;;;;;5060988;28;20024;-68
2021/01/19 02:13:09;;;;;;;11.98;3.20;;;6.10;99.90;;;;;;5071611;28;20518;-66
2021/01/19 02:15:40;;;;;;;11.32;2.67;;;6.00;99.90;;;;;;5071317;28;20024;-68
2021/01/19 02:18:23;;;;;;;11.82;2.53;;;6.00;99.90;;;;;;5071652;28;20334;-67
2021/01/19 02:21:27;;;;;;;18.63;3.25;;;5.90;99.90;;;;;;5071532;28;20029;-68
2021/01/19 02:24:22;;;;;;;16.92;3.08;;;6.00;99.90;;;;;;5071593;28;20380;-67
2021/01/19 02:27:00;;;;;;;9.90;2.90;;;6.00;99.90;;;;;;5071926;28;20029;-68
2021/01/19 02:29:25;;;;;;;8.82;2.70;;;5.90;99.90;;;;;;5071539;28;20078;-67
2021/01/19 02:32:08;;;;;;;18.63;3.92;;;5.90;99.90;;;;;;5071072;28;20480;-67
2021/01/19 02:34:44;;;;;;;12.32;3.33;;;5.90;99.90;;;;;;5071261;28;20111;-68
2021/01/19 02:37:13;;;;;;;10.57;3.08;;;5.80;99.90;;;;;;5070915;28;20056;-68
2021/01/19 02:39:47;;;;;;;11.15;4.45;;;5.80;99.90;;;;;;5071596;28;20033;-67
2021/01/19 02:42:19;;;;;;;9.50;3.30;;;5.80;99.90;;;;;;5071456;28;20020;-67
2021/01/19 02:44:47;;;;;;;14.02;4.45;;;5.80;99.90;;;;;;5071081;28;20439;-68
2021/01/19 02:47:14;;;;;;;10.13;3.85;;;5.80;99.90;;;;;;5071390;28;20020;-66
2021/01/19 02:49:41;;;;;;;11.38;3.50;;;5.80;99.90;;;;;;5071243;28;20020;-66
2021/01/19 02:52:07;;;;;;;16.17;4.45;;;5.80;99.90;;;;;;5071234;28;20089;-67
2021/01/19 02:54:33;;;;;;;10.98;3.90;;;5.80;99.90;;;;;;5072277;28;20020;-67
2021/01/19 02:57:03;;;;;;;11.70;4.25;;;5.70;99.90;;;;;;5071434;28;20480;-67
2021/01/19 02:59:54;;;;;;;8.70;4.03;;;5.70;99.90;;;;;;5070784;28;20028;-67
2021/01/19 03:02:22;;;;;;;12.63;4.75;;;5.70;99.90;;;;;;5070840;28;20127;-68
2021/01/19 03:04:51;;;;;;;10.75;4.70;;;5.70;99.90;;;;;;5070981;28;20130;-68
2021/01/19 03:07:19;;;;;;;12.23;4.13;;;5.70;99.90;;;;;;5070845;28;20016;-67
2021/01/19 03:09:48;;;;;;;13.10;4.53;;;5.70;99.90;;;;;;5071212;28;20035;-68
2021/01/19 03:12:15;;;;;;;14.38;4.93;;;5.70;99.90;;;;;;5070047;28;20035;-68
2021/01/19 03:14:41;;;;;;;8.23;4.30;;;5.60;99.90;;;;;;5071185;28;20028;-67
2021/01/19 03:17:08;;;;;;;10.00;4.72;;;5.50;99.90;;;;;;5070487;28;20033;-67
2021/01/19 03:19:41;;;;;;;17.60;5.28;;;5.50;99.90;;;;;;5070372;28;20036;-67
2021/01/19 03:22:08;;;;;;;11.93;5.18;;;5.50;99.90;;;;;;5071320;28;20024;-67
2021/01/19 03:24:33;;;;;;;14.38;4.78;;;5.50;99.90;;;;;;5070425;28;20216;-67
2021/01/19 03:26:59;;;;;;;11.57;5.70;;;5.50;99.90;;;;;;5070490;28;20047;-67
2021/01/19 03:29:25;;;;;;;10.80;5.30;;;5.50;99.90;;;;;;5070611;28;20035;-67
2021/01/19 03:31:51;;;;;;;9.63;5.93;;;5.50;99.90;;;;;;5071660;28;20028;-67
2021/01/19 03:34:16;;;;;;;10.23;5.72;;;5.50;99.90;;;;;;5074509;28;20036;-67
2021/01/19 03:36:42;;;;;;;11.75;5.78;;;5.50;99.90;;;;;;5074345;28;20037;-67
2021/01/19 03:39:07;;;;;;;15.40;6.40;;;5.50;99.90;;;;;;5074919;28;20097;-66
2021/01/19 03:41:33;;;;;;;13.23;5.72;;;5.60;99.90;;;;;;5073806;28;20380;-67
2021/01/19 03:43:59;;;;;;;12.45;6.07;;;5.60;99.90;;;;;;5074842;28;20099;-66
2021/01/19 03:46:25;;;;;;;12.52;6.55;;;5.60;99.90;;;;;;5074714;28;20025;-66
2021/01/19 03:48:51;;;;;;;11.02;6.00;;;5.60;99.90;;;;;;5073934;28;20516;-67
2021/01/19 03:51:16;;;;;;;10.45;6.25;;;5.60;99.90;;;;;;5074277;28;20068;-67
2021/01/19 03:53:42;;;;;;;9.52;6.40;;;5.60;99.90;;;;;;5074542;28;20017;-67
2021/01/19 03:56:07;;;;;;;11.02;7.90;;;5.60;99.90;;;;;;5073928;28;20038;-66
2021/01/19 03:58:33;;;;;;;8.35;6.93;;;5.70;99.90;;;;;;5074354;28;20128;-67
2021/01/19 04:00:58;;;;;;;12.60;7.32;;;5.70;99.90;;;;;;5075098;28;20021;-66
2021/01/19 04:03:24;;;;;;;12.95;7.15;;;5.70;99.90;;;;;;5074242;28;20043;-66
2021/01/19 04:05:50;;;;;;;15.55;8.43;;;5.70;99.90;;;;;;5074276;28;20035;-66
2021/01/19 04:08:15;;;;;;;16.40;7.57;;;5.70;99.90;;;;;;5073424;28;20068;-67
2021/01/19 04:10:41;;;;;;;12.27;8.15;;;5.70;99.90;;;;;;5073935;28;20038;-67
2021/01/19 04:13:06;;;;;;;15.00;8.07;;;5.70;99.90;;;;;;5073824;28;20491;-67
2021/01/19 04:15:32;;;;;;;15.30;8.18;;;5.70;99.90;;;;;;5073213;28;20020;-67
2021/01/19 04:17:57;;;;;;;10.48;7.75;;;5.70;99.90;;;;;;5074663;28;20024;-68
2021/01/19 04:20:24;;;;;;;12.70;7.53;;;5.70;99.90;;;;;;5073921;28;20025;-67
2021/01/19 04:22:50;;;;;;;12.45;7.82;;;5.70;99.90;;;;;;5073579;28;20115;-67
2021/01/19 04:25:15;;;;;;;9.70;7.20;;;5.70;99.90;;;;;;5073582;28;20559;-67
2021/01/19 04:27:41;;;;;;;12.50;7.95;;;5.70;99.90;;;;;;5073896;28;20369;-67
2021/01/19 04:30:07;;;;;;;9.45;7.20;;;5.80;99.90;;;;;;5073613;28;20479;-66
2021/01/19 04:32:35;;;;;;;10.55;6.55;;;5.70;99.90;;;;;;5073339;28;20048;-66
2021/01/19 04:35:00;;;;;;;9.25;6.85;;;5.80;99.90;;;;;;5073716;28;20373;-66
2021/01/19 04:37:26;;;;;;;10.02;7.00;;;5.80;99.90;;;;;;5072649;28;20063;-66
2021/01/19 04:39:52;;;;;;;8.52;6.50;;;5.80;99.90;;;;;;5073301;28;20089;-66
2021/01/19 04:42:19;;;;;;;10.98;6.78;;;5.80;99.90;;;;;;5073335;28;20097;-67
2021/01/19 04:44:45;;;;;;;8.52;6.43;;;5.80;99.90;;;;;;5073300;28;20177;-66
2021/01/19 04:47:12;;;;;;;7.78;6.55;;;5.90;99.90;;;;;;5073252;28;20027;-66
2021/01/19 04:49:39;;;;;;;10.35;7.25;;;5.90;99.90;;;;;;5073443;28;20029;-66
2021/01/19 04:52:05;;;;;;;9.68;7.57;;;5.90;99.90;;;;;;5072994;28;20040;-66
2021/01/19 04:54:41;;;;;;;8.15;6.43;;;5.90;99.90;;;;;;5073288;28;20032;-67
2021/01/19 04:57:19;;;;;;;8.23;6.65;;;5.80;99.90;;;;;;5073963;28;20036;-68
2021/01/19 04:59:51;;;;;;;7.68;6.90;;;5.90;99.90;;;;;;5073856;28;20032;-68
2021/01/19 05:02:34;;;;;;;8.00;7.13;;;5.90;99.90;;;;;;5073195;28;20345;-67
2021/01/19 05:05:22;;;;;;;13.75;7.78;;;5.90;99.90;;;;;;5073475;28;20035;-68
2021/01/19 05:08:14;;;;;;;10.20;7.25;;;5.90;99.90;;;;;;5073594;28;20020;-68
2021/01/19 05:10:40;;;;;;;8.40;6.57;;;5.90;99.90;;;;;;5067865;28;20039;-69
2021/01/19 05:13:09;;;;;;;11.52;6.85;;;5.90;99.90;;;;;;5073098;28;20032;-69
2021/01/19 05:15:46;;;;;;;10.07;6.80;;;5.90;99.90;;;;;;5072913;28;20423;-68
2021/01/19 05:18:13;;;;;;;7.72;5.97;;;5.90;99.90;;;;;;5073656;28;20029;-69
2021/01/19 05:20:45;;;;;;;9.02;6.70;;;6.00;99.90;;;;;;5072906;28;20028;-71
2021/01/19 05:23:21;;;;;;;7.05;6.15;;;6.00;99.90;;;;;;5073468;28;20020;-69
2021/01/19 05:25:57;;;;;;;8.82;6.65;;;6.00;99.90;;;;;;5072878;28;20658;-68
2021/01/19 05:28:35;;;;;;;13.80;6.82;;;6.00;99.90;;;;;;5073323;28;20016;-68
2021/01/19 05:31:05;;;;;;;9.95;6.72;;;6.00;99.90;;;;;;5073145;28;20477;-68
2021/01/19 05:33:30;;;;;;;8.88;6.80;;;6.00;99.90;;;;;;5072421;28;20027;-68
2021/01/19 05:36:10;;;;;;;9.88;6.55;;;6.00;99.90;;;;;;5072895;28;20036;-68
2021/01/19 05:38:53;;;;;;;7.43;6.60;;;6.10;99.90;;;;;;5072302;28;20536;-67
2021/01/19 05:41:38;;;;;;;11.20;7.03;;;6.00;99.90;;;;;;5072462;28;20017;-69
2021/01/19 05:44:22;;;;;;;7.28;6.53;;;6.10;99.90;;;;;;5072710;28;20025;-68
2021/01/19 05:46:50;;;;;;;9.85;6.55;;;6.10;99.90;;;;;;5072291;28;20025;-67
2021/01/19 05:49:22;;;;;;;8.10;6.47;;;6.10;99.90;;;;;;5072533;28;20124;-67
2021/01/19 05:51:50;;;;;;;8.38;6.05;;;6.10;99.90;;;;;;5072399;28;20485;-67
2021/01/19 05:54:27;;;;;;;12.23;6.57;;;6.20;99.90;;;;;;5071278;28;20036;-67
2021/01/19 05:57:15;;;;;;;9.75;5.90;;;6.20;99.90;;;;;;5071697;28;20493;-67
2021/01/19 05:59:43;;;;;;;9.25;5.95;;;6.20;99.90;;;;;;5072294;28;20588;-67
2021/01/19 06:02:19;;;;;;;9.27;5.63;;;6.20;99.90;;;;;;5071343;28;20032;-67
2021/01/19 06:04:49;;;;;;;5.72;5.18;;;6.20;99.90;;;;;;5071925;28;20119;-67
2021/01/19 06:07:18;;;;;;;6.47;4.97;;;6.20;99.90;;;;;;5071851;28;20050;-67
2021/01/19 06:09:44;;;;;;;6.20;4.85;;;6.20;99.90;;;;;;5072218;28;20032;-67
2021/01/19 06:12:11;;;;;;;6.43;5.00;;;6.20;99.90;;;;;;5072473;28;20028;-67
2021/01/19 06:14:39;;;;;;;12.18;5.30;;;6.20;99.90;;;;;;5071891;28;20042;-66
2021/01/19 06:17:08;;;;;;;9.07;4.72;;;6.30;99.90;;;;;;5071367;28;20124;-67
2021/01/19 06:19:34;;;;;;;8.02;4.50;;;6.30;99.90;;;;;;5071468;28;20160;-67
2021/01/19 06:22:05;;;;;;;8.60;3.88;;;6.30;99.90;;;;;;5071159;28;20508;-67
2021/01/19 06:24:39;;;;;;;6.13;3.92;;;6.40;99.90;;;;;;5071600;28;20024;-67
2021/01/19 06:27:06;;;;;;;4.10;3.22;;;6.40;99.90;;;;;;5071429;28;20037;-66
2021/01/19 06:29:32;;;;;;;6.30;3.67;;;6.40;99.90;;;;;;5070793;28;20046;-67
2021/01/19 06:32:00;;;;;;;7.40;3.70;;;6.50;99.90;;;;;;5071588;28;20031;-67
2021/01/19 06:34:30;;;;;;;7.13;3.53;;;6.60;99.90;;;;;;5071270;28;20029;-67
2021/01/19 06:36:56;;;;;;;7.35;3.00;;;6.60;99.90;;;;;;5070638;28;20028;-67
2021/01/19 06:39:55;;;;;;;5.35;2.47;;;6.60;99.90;;;;;;5071042;28;20103;-67
2021/01/19 06:42:28;;;;;;;3.15;2.78;;;6.70;99.90;;;;;;5067912;28;20028;-66
2021/01/19 06:44:58;;;;;;;4.50;2.45;;;6.80;99.90;;;;;;5081780;28;20020;-67
2021/01/19 06:47:24;;;;;;;6.20;2.92;;;6.80;99.90;;;;;;5073687;28;20031;-66
2021/01/19 06:49:52;;;;;;;3.83;2.10;;;6.80;99.90;;;;;;5087081;28;20020;-66
2021/01/19 06:52:18;;;;;;;4.72;2.30;;;6.80;99.90;;;;;;5084978;28;20031;-67
2021/01/19 06:54:52;;;;;;;2.75;1.80;;;6.90;99.90;;;;;;5083084;28;20133;-67
2021/01/19 06:57:39;;;;;;;5.10;1.90;;;6.80;99.90;;;;;;5080899;28;20118;-66
2021/01/19 07:00:23;;;;;;;2.97;1.70;;;6.90;99.90;;;;;;5079764;28;20036;-67
2021/01/19 07:02:51;;;;;;;4.00;2.25;;;6.90;99.90;;;;;;5085256;28;20116;-67
2021/01/19 07:05:18;;;;;;;6.53;1.95;;;6.90;99.90;;;;;;5078131;28;20120;-67
2021/01/19 07:07:54;;;;;;;2.00;1.63;;;6.90;99.90;;;;;;5086628;28;20028;-67
2021/01/19 07:10:48;;;;;;;2.80;1.75;;;6.90;99.90;;;;;;5089609;28;20020;-67
2021/01/19 07:13:24;;;;;;;3.47;1.85;;;6.90;99.90;;;;;;5087085;28;20519;-67
2021/01/19 07:15:56;;;;;;;6.03;2.00;;;6.90;99.90;;;;;;5081892;28;20449;-66
2021/01/19 07:18:43;;;;;;;4.03;1.80;;;6.90;99.90;;;;;;5087664;28;20494;-66
2021/01/19 07:21:09;;;;;;;4.25;1.63;;;6.90;99.90;;;;;;5085789;28;20028;-68
2021/01/19 07:24:07;;;;;;;2.95;1.50;;;7.00;99.90;;;;;;5087908;28;20031;-67
2021/01/19 07:26:38;;;;;;;2.25;1.65;;;7.00;99.90;;;;;;5085052;28;20050;-67
2021/01/19 07:29:04;;;;;;;3.08;1.73;;;7.00;99.90;;;;;;5087765;28;20040;-67
2021/01/19 07:31:30;;;;;;;2.70;1.58;;;7.00;99.90;;;;;;5084462;28;20040;-67
2021/01/19 07:33:57;;;;;;;7.30;2.75;;;7.00;99.90;;;;;;5087478;28;20031;-67
2021/01/19 07:36:25;;;;;;;5.13;1.92;;;7.00;99.90;;;;;;5080656;28;20089;-67
2021/01/19 07:38:51;;;;;;;4.45;3.60;;;7.00;99.90;;;;;;5083049;28;20043;-67
2021/01/19 07:41:26;;;;;;;5.70;2.33;;;7.00;99.90;;;;;;5082565;28;20020;-67
2021/01/19 07:43:52;;;;;;;8.18;1.92;;;7.00;99.90;;;;;;5083351;28;20210;-67
2021/01/19 07:46:28;;;;;;;3.60;2.30;;;7.10;99.90;;;;;;5080956;28;20390;-66
2021/01/19 07:49:03;;;;;;;4.43;1.88;;;7.10;99.90;;;;;;5084363;28;20025;-67
2021/01/19 07:51:43;;;;;;;7.43;1.83;;;7.20;99.90;;;;;;5087355;28;20032;-68
2021/01/19 07:54:10;;;;;;;3.60;2.03;;;7.20;99.90;;;;;;5088812;28;20016;-68
2021/01/19 07:56:36;;;;;;;5.32;2.53;;;7.20;99.90;;;;;;5078697;28;20086;-67
2021/01/19 07:59:02;;;;;;;2.83;2.15;;;7.20;99.90;;;;;;5085310;28;20020;-67
2021/01/19 08:01:34;;;;;;;4.22;2.08;;;7.30;99.90;;;;;;5087911;28;20066;-67
2021/01/19 08:04:10;;;;;;;6.63;2.70;;;7.30;99.90;;;;;;5084978;28;20028;-67
2021/01/19 08:06:37;;;;;;;3.83;1.73;;;7.30;99.90;;;;;;5089686;28;20103;-68
2021/01/19 08:09:18;;;;;;;2.38;1.73;;;7.30;99.90;;;;;;5089151;28;20444;-67
2021/01/19 08:11:44;;;;;;;2.13;1.90;;;7.40;99.90;;;;;;5090338;28;20031;-67
2021/01/19 08:14:11;;;;;;;6.45;2.20;;;7.30;99.90;;;;;;5085580;28;20025;-67
2021/01/19 08:16:37;;;;;;;5.20;3.58;;;7.40;99.90;;;;;;5087803;28;20035;-67
2021/01/19 08:19:08;;;;;;;3.47;1.55;;;7.40;99.90;;;;;;5090556;28;20016;-66
2021/01/19 08:21:38;;;;;;;;;;;7.40;99.90;;;;;;5088244;28;20032;-66
2021/01/19 08:24:08;;;;;;;2.00;1.58;;;7.50;99.90;;;;;;5093396;28;19904;-66
2021/01/19 08:26:34;;;;;;;3.78;1.90;;;7.50;99.90;;;;;;5074084;28;20048;-66
2021/01/19 08:29:01;;;;;;;4.90;2.08;;;7.50;99.90;;;;;;5073825;28;20032;-66
2021/01/19 08:31:29;;;;;;;4.90;2.03;;;7.50;99.90;;;;;;5073849;28;20016;-66
2021/01/19 08:34:03;;;;;;;2.28;1.75;;;7.50;99.90;;;;;;5074772;28;20085;-67
2021/01/19 08:36:30;;;;;;;9.30;2.50;;;7.50;99.90;;;;;;5073535;28;20377;-67
2021/01/19 08:38:58;;;;;;;3.42;1.55;;;7.50;99.90;;;;;;5082624;28;20040;-67
2021/01/19 08:41:24;;;;;;;3.65;2.47;;;7.50;99.90;;;;;;5091766;28;20035;-68
2021/01/19 08:43:54;;;;;;;1.85;1.58;;;7.60;99.90;;;;;;5092184;28;20024;-66
2021/01/19 08:46:20;;;;;;;1.80;1.40;;;7.60;99.90;;;;;;5075352;28;20508;-67
2021/01/19 08:48:47;;;;;;;1.67;1.50;;;7.60;99.90;;;;;;5074121;28;20109;-67
2021/01/19 08:51:20;;;;;;;3.90;1.80;;;7.60;99.90;;;;;;5081355;28;20035;-66
2021/01/19 08:53:47;;;;;;;2.22;1.52;;;7.70;99.90;;;;;;5087178;28;20019;-66
2021/01/19 08:56:23;;;;;;;3.38;1.90;;;7.70;99.90;;;;;;5079820;28;20044;-66
2021/01/19 08:58:50;;;;;;;1.98;1.80;;;7.70;99.90;;;;;;5091018;28;20106;-66
2021/01/19 09:01:16;;;;;;;2.03;1.73;;;7.70;99.90;;;;;;5092799;28;20020;-67
2021/01/19 09:03:42;;;;;;;3.33;2.28;;;7.80;99.90;;;;;;5093717;28;20028;-68
2021/01/19 09:06:09;;;;;;;3.35;1.98;;;7.70;99.90;;;;;;5094377;28;20034;-67
2021/01/19 09:08:35;;;;;;;4.57;2.35;;;7.80;99.90;;;;;;5093451;28;20077;-66
2021/01/19 09:11:12;;;;;;;2.63;1.85;;;7.80;99.90;;;;;;5093520;28;20465;-66
2021/01/19 09:13:39;;;;;;;2.00;1.83;;;7.80;99.90;;;;;;5093490;28;20016;-67
2021/01/19 09:16:06;;;;;;;2.75;1.80;;;7.80;99.90;;;;;;5093841;28;20058;-67
2021/01/19 09:18:32;;;;;;;1.42;1.27;;;7.80;99.90;;;;;;5091746;28;20025;-65
2021/01/19 09:21:10;;;;;;;2.45;1.80;;;7.90;99.90;;;;;;5083280;28;20021;-67
2021/01/19 09:23:36;;;;;;;3.13;1.67;;;7.90;99.90;;;;;;5089362;28;20071;-68
2021/01/19 09:26:07;;;;;;;3.50;1.73;;;7.90;99.90;;;;;;5080009;28;20093;-68
2021/01/19 09:28:37;;;;;;;;;;;7.90;99.90;;;;;;5071427;28;20524;-67
2021/01/19 09:31:09;;;;;;;3.83;2.03;;;8.00;99.90;;;;;;5070502;28;20098;-67
2021/01/19 09:33:35;;;;;;;2.60;2.08;;;8.00;99.90;;;;;;5080953;28;20028;-66
2021/01/19 09:36:09;;;;;;;3.38;2.30;;;8.00;99.90;;;;;;5071215;28;20035;-66
2021/01/19 09:38:36;;;;;;;4.40;2.20;;;8.00;99.90;;;;;;5070664;28;20055;-67
2021/01/19 09:41:03;;;;;;;11.75;2.90;;;8.00;99.90;;;;;;5068924;28;20029;-66
2021/01/19 09:43:29;;;;;;;4.10;2.78;;;8.00;99.90;;;;;;5064210;28;20040;-66
2021/01/19 09:46:02;;;;;;;4.85;1.98;;;8.00;99.90;;;;;;5071324;28;20489;-66
2021/01/19 09:48:30;;;;;;;2.35;2.15;;;8.00;99.90;;;;;;5088344;28;20467;-65
2021/01/19 09:51:03;;;;;;;6.82;2.92;;;8.10;99.90;;;;;;5073011;28;20055;-66
2021/01/19 09:53:34;;;;;;;6.95;3.30;;;8.10;99.90;;;;;;5088967;28;20567;-66
2021/01/19 09:56:00;;;;;;;;;;;8.10;99.90;;;;;;5093434;28;20036;-66
2021/01/19 09:58:28;;;;;;;3.65;3.35;;;8.10;99.90;;;;;;5086534;28;19912;-67
2021/01/19 10:00:54;;;;;;;7.97;3.80;;;8.20;99.90;;;;;;5072326;28;20067;-68
2021/01/19 10:03:25;;;;;;;4.45;3.13;;;8.20;99.90;;;;;;5072184;28;20028;-68
2021/01/19 10:06:03;;;;;;;8.05;4.00;;;8.30;99.90;;;;;;5075391;28;20447;-67
2021/01/19 10:08:29;;;;;;;6.15;3.75;;;8.30;99.90;;;;;;5092162;28;20023;-69
2021/01/19 10:10:54;;;;;;;7.85;4.55;;;8.40;99.90;;;;;;5092500;28;20032;-67
2021/01/19 10:13:25;;;;;;;9.00;5.93;;;8.40;99.90;;;;;;5091891;28;20023;-67
2021/01/19 10:15:57;;;;;;;;;;;8.60;99.90;;;;;;5092882;28;20067;-66
2021/01/19 10:18:23;;;;;;;7.80;2.42;;;8.70;99.90;;;;;;5092208;28;19908;-67
2021/01/19 10:20:49;;;;;;;6.72;1.67;;;8.90;99.90;;;;;;5091918;28;20414;-65
2021/01/19 10:23:23;;;;;;;7.57;2.03;;;9.10;99.90;;;;;;5091583;28;20035;-67
2021/01/19 10:25:54;;;;;;;7.68;1.85;;;9.20;99.90;;;;;;5092434;28;20032;-66
2021/01/19 10:28:24;;;;;;;3.58;1.95;;;9.30;99.90;;;;;;5091716;28;20035;-67
2021/01/19 10:30:50;;;;;;;4.80;2.83;;;9.30;99.90;;;;;;5080752;28;20035;-66
2021/01/19 10:33:26;;;;;;;14.40;2.97;;;9.40;99.90;;;;;;5078468;28;20036;-66
2021/01/19 10:35:53;;;;;;;16.27;3.67;;;9.40;99.90;;;;;;5071653;28;20473;-67
2021/01/19 10:38:25;;;;;;;5.90;1.85;;;9.50;99.90;;;;;;5071206;28;20507;-67
2021/01/19 10:40:51;;;;;;;18.60;2.97;;;9.50;99.90;;;;;;5084584;28;20028;-67
2021/01/19 10:43:16;;;;;;;8.95;2.15;;;9.50;99.90;;;;;;5077327;28;20891;-66
2021/01/19 10:45:43;;;;;;;15.13;2.22;;;9.60;99.90;;;;;;5083399;28;20023;-66
2021/01/19 10:48:19;;;;;;;7.50;1.70;;;9.60;99.90;;;;;;5089502;28;20107;-66
2021/01/19 10:50:46;;;;;;;8.75;1.75;;;9.60;99.90;;;;;;5087606;28;20091;-67
2021/01/19 10:53:11;;;;;;;8.70;1.60;;;9.60;99.90;;;;;;5088451;28;20435;-66
2021/01/19 10:55:38;;;;;;;12.43;2.25;;;9.60;99.90;;;;;;5088270;28;20028;-67
2021/01/19 10:58:05;;;;;;;6.90;1.77;;;9.70;99.90;;;;;;5073764;28;20063;-68
2021/01/19 11:00:32;;;;;;;7.63;2.25;;;9.80;99.90;;;;;;5077186;28;20024;-68
2021/01/19 11:02:58;;;;;;;11.63;2.03;;;9.80;99.90;;;;;;5089470;28;20031;-67
2021/01/19 11:05:25;;;;;;;9.95;1.45;;;9.80;99.90;;;;;;5085539;28;20516;-68
2021/01/19 11:07:52;;;;;;;13.77;2.47;;;9.80;99.90;;;;;;5084494;28;20020;-68
2021/01/19 11:10:20;;;;;;;12.93;2.10;;;9.80;99.90;;;;;;5087696;28;20503;-68
2021/01/19 11:12:46;;;;;;;4.43;1.70;;;9.80;99.90;;;;;;5082028;28;20069;-68
2021/01/19 11:15:12;;;;;;;9.45;1.60;;;9.80;99.90;;;;;;5081815;28;20024;-67
2021/01/19 11:17:38;;;;;;;5.70;1.92;;;9.80;99.90;;;;;;5084682;28;20068;-67
2021/01/19 11:20:09;;;;;;;9.55;2.00;;;9.80;99.90;;;;;;5083775;28;20464;-68
2021/01/19 11:22:35;;;;;;;;;;;9.80;99.90;;;;;;5087755;28;20020;-68
2021/01/19 11:25:01;;;;;;;5.45;1.52;;;9.90;99.90;;;;;;5089115;28;19919;-67
2021/01/19 11:27:27;;;;;;;7.07;1.48;;;9.80;99.90;;;;;;5083299;28;20053;-68
2021/01/19 11:29:54;;;;;;;7.03;1.88;;;9.80;99.90;;;;;;5081908;28;20149;-67
2021/01/19 11:32:19;;;;;;;3.92;1.75;;;9.90;99.90;;;;;;5074731;28;20044;-68
2021/01/19 11:34:45;;;;;;;9.07;1.40;;;9.80;99.90;;;;;;5077450;28;20126;-67
2021/01/19 11:37:13;;;;;;;13.63;3.20;;;9.90;99.90;;;;;;5071039;28;20122;-67
2021/01/19 11:39:39;;;;;;;8.57;1.73;;;9.90;99.90;;;;;;5070833;28;20021;-67
2021/01/19 11:42:05;;;;;;;22.25;2.35;;;9.90;99.90;;;;;;5070944;28;20078;-67
2021/01/19 11:44:30;;;;;;;10.95;2.35;;;9.90;99.90;;;;;;5071250;28;20025;-67
2021/01/19 11:46:56;;;;;;;12.02;2.67;;;10.00;99.90;;;;;;5070788;28;20107;-67
2021/01/19 11:49:21;;;;;;;8.68;1.90;;;10.00;99.90;;;;;;5071156;28;20025;-67
2021/01/19 11:51:48;;;;;;;15.32;3.03;;;10.00;99.90;;;;;;5071434;28;20025;-67
2021/01/19 11:54:15;;;;;;;4.18;1.75;;;10.00;99.90;;;;;;5074068;28;20066;-67
2021/01/19 11:56:48;;;;;;;24.17;2.70;;;10.10;99.90;;;;;;5090697;28;20077;-67
2021/01/19 11:59:14;;;;;;;8.85;2.53;;;10.10;99.90;;;;;;5088492;28;20027;-66
2021/01/19 12:01:41;;;;;;;11.20;3.25;;;10.10;99.90;;;;;;5091055;28;21177;-67
2021/01/19 12:04:07;;;;;;;14.93;3.17;;;10.10;99.90;;;;;;5084473;28;20028;-67
2021/01/19 12:06:34;;;;;;;12.80;2.17;;;10.10;99.90;;;;;;5089117;28;20032;-67
2021/01/19 12:09:00;;;;;;;14.52;2.28;;;10.10;99.90;;;;;;5091081;28;20020;-67
2021/01/19 12:11:26;;;;;;;8.85;2.03;;;10.10;99.90;;;;;;5086412;28;20321;-68
2021/01/19 12:13:51;;;;;;;16.17;3.20;;;10.20;99.90;;;;;;5090318;28;20020;-67
2021/01/19 12:16:22;;;;;;;19.85;2.70;;;10.20;99.90;;;;;;5091718;28;20111;-67
2021/01/19 12:18:49;;;;;;;16.10;3.30;;;10.20;99.90;;;;;;5091294;28;20490;-67
2021/01/19 12:21:15;;;;;;;11.57;2.70;;;10.20;99.90;;;;;;5089893;28;20400;-67
2021/01/19 12:23:42;;;;;;;12.98;2.25;;;10.20;99.90;;;;;;5094093;28;20100;-66
2021/01/19 12:26:08;;;;;;;15.98;3.05;;;10.10;99.90;;;;;;5089930;28;20032;-66
2021/01/19 12:28:33;;;;;;;19.30;3.05;;;10.20;99.90;;;;;;5090965;28;20456;-67
2021/01/19 12:30:59;;;;;;;21.40;2.33;;;10.20;99.90;;;;;;5092517;28;20468;-67
2021/01/19 12:33:24;;;;;;;16.05;2.42;;;10.20;99.90;;;;;;5094058;28;20069;-68
2021/01/19 12:35:51;;;;;;;20.33;2.60;;;10.20;99.90;;;;;;5094465;28;20517;-67
2021/01/19 12:38:18;;;;;;;18.85;2.97;;;10.20;99.90;;;;;;5086679;28;20044;-67
2021/01/19 12:40:44;;;;;;;21.95;2.40;;;10.20;99.90;;;;;;5092339;28;20361;-67
2021/01/19 12:43:10;;;;;;;18.20;3.50;;;10.20;99.90;;;;;;5091383;28;20031;-66
2021/01/19 12:45:39;;;;;;;12.23;1.60;;;10.20;99.90;;;;;;5092395;28;20022;-66
2021/01/19 12:48:06;;;;;;;8.77;2.30;;;10.30;99.90;;;;;;5093998;28;20016;-67
2021/01/19 12:50:33;;;;;;;10.10;2.00;;;10.30;99.90;;;;;;5092500;28;20024;-67
2021/01/19 12:53:01;;;;;;;8.52;1.90;;;10.30;99.90;;;;;;5091173;28;20095;-67
2021/01/19 12:55:27;;;;;;;13.05;1.80;;;10.30;99.90;;;;;;5089045;28;20029;-67
2021/01/19 12:57:53;;;;;;;5.43;1.63;;;10.30;99.90;;;;;;5091181;28;20361;-67
2021/01/19 13:00:19;;;;;;;13.48;2.17;;;10.30;99.90;;;;;;5087620;28;20016;-67
2021/01/19 13:02:44;;;;;;;13.00;2.42;;;10.30;99.90;;;;;;5092519;28;20040;-67